Pagrindinis puslapis
METAR-TAF:

METAR-TAF

Oro uostai :

Bauru, San Paulas, Brazilija

platuma: 22-19S, ilguma: 049-04W, Aukštis: 590 m

Dabartinis oras

Ataskaita buvo paskelbta 1 valandą ir 1 minutes, ne 21:00 UTC
Vėjas 3 kt iš Šiaurės Vakarų
Temperatūra 24°C
Drėgmė 44%
Slėgis 1019 hPa
Matomumas 10 km arba daugiau
nėra debesų žemiau 1500 m ir nėra kamuolinių lietaus debesų

METAR: SBBU 302100Z 32003KT CAVOK 24/11 Q1019

Laikas: 19:01 (22:01 UTC)

Prognozė

Ataskaita buvo paskelbta 7 valandos ir 1 minutes, ne 15:00 UTC
Prognozė galioja nuo 30 metu 18 UTC su 31 metu 06 UTC
Vėjas 8 kt iš Vakarų/Šiaurės Vakarų
Matomumas 10 km arba daugiau
nėra debesų žemiau 1500 m ir nėra kamuolinių lietaus debesų
Tapsmas
nuo 30 metu 22 UTC su 30 metu 23 UTC
Vėjas 6 kt iš Pietų
Tapsmas
nuo 31 metu 02 UTC su 31 metu 04 UTC
Vėjas 7 kt iš Rytų

TAF: SBBU 301500Z 3018/3106 29008KT CAVOK TX27/3019Z TN19/3105Z BECMG 3022/3023 18006KT BECMG 3102/3104 09007KT RMK PEI

Orai ataskaitas ir orų prognozės (METAR, TAF).

turimą stotys yra geltonos ir raudonos taškus žemėlapyje.

Perkelti pele per norėdami pamatyti stoties vardą.

Tada spustelėkite, norėdami matyti oro stebėjimo ir prognozės.

Norėdami pakeisti žemėlapį: spustelėkite ant žalios mygtukų su juodo kryžiaus žemyn,; žalią mygtuką su brūkšneliu, jei norite nutolinti; arba žalių rodyklių gretimoms žemėlapius.


METAR-TAF: